createdAt,value
2022-09-17T00:00:37.878Z,9.90
2022-09-17T00:01:37.906Z,11.30
2022-09-17T00:02:37.932Z,10.80
2022-09-17T00:03:37.857Z,8.60
2022-09-17T00:04:37.845Z,9.40
2022-09-17T00:05:37.844Z,10.10
2022-09-17T00:06:37.828Z,10.00
2022-09-17T00:07:37.925Z,7.60
2022-09-17T00:08:37.813Z,8.90
2022-09-17T00:09:37.806Z,10.60
2022-09-17T00:10:37.801Z,11.50
2022-09-17T00:11:37.792Z,7.40
2022-09-17T00:12:37.811Z,11.90
2022-09-17T00:13:37.778Z,10.40
2022-09-17T00:14:37.772Z,11.00
2022-09-17T00:15:37.766Z,7.30
2022-09-17T00:16:37.798Z,8.50
2022-09-17T00:17:37.774Z,10.80
2022-09-17T00:18:37.746Z,10.40
2022-09-17T00:19:37.736Z,10.30
2022-09-17T00:20:37.733Z,9.30
2022-09-17T00:21:37.720Z,10.20
2022-09-17T00:22:37.741Z,9.60
2022-09-17T00:23:37.785Z,10.50
2022-09-17T00:24:37.695Z,7.90
2022-09-17T00:25:37.689Z,10.90
2022-09-17T00:26:37.680Z,8.60
2022-09-17T00:27:37.696Z,8.20
2022-09-17T00:28:37.663Z,9.40
2022-09-17T00:29:37.660Z,9.10
2022-09-17T00:30:37.651Z,8.40
2022-09-17T00:31:37.710Z,10.10
2022-09-17T00:32:37.659Z,10.50
2022-09-17T00:33:37.626Z,10.20
2022-09-17T00:34:37.620Z,5.70
2022-09-17T00:35:37.610Z,8.30
2022-09-17T00:36:37.597Z,5.80
2022-09-17T00:37:37.624Z,5.00
2022-09-17T00:38:37.587Z,6.80
2022-09-17T00:39:37.658Z,6.50
2022-09-17T00:40:37.633Z,4.80
2022-09-17T00:41:37.566Z,5.60
2022-09-17T00:42:37.579Z,5.80
2022-09-17T00:43:37.554Z,4.70
2022-09-17T00:44:37.544Z,5.20
2022-09-17T00:45:39.825Z,4.00
2022-09-17T00:46:37.560Z,5.60
2022-09-17T00:47:37.548Z,6.30
2022-09-17T00:48:37.508Z,5.00
2022-09-17T00:49:37.499Z,5.10
2022-09-17T00:50:37.494Z,5.40
2022-09-17T00:51:37.484Z,5.00
2022-09-17T00:52:37.498Z,5.80
2022-09-17T00:53:37.468Z,3.80
2022-09-17T00:54:37.460Z,4.70
2022-09-17T00:55:37.526Z,3.70
2022-09-17T00:56:37.447Z,7.80
2022-09-17T00:57:37.462Z,6.20
2022-09-17T00:58:41.127Z,4.80
2022-09-17T00:59:38.421Z,7.30
2022-09-17T01:00:37.422Z,5.60
2022-09-17T01:01:37.460Z,5.20
2022-09-17T01:02:37.422Z,3.90
2022-09-17T01:03:37.508Z,5.60
2022-09-17T01:04:37.383Z,5.30
2022-09-17T01:05:37.376Z,5.90
2022-09-17T01:06:37.369Z,5.30
2022-09-17T01:07:37.385Z,6.60
2022-09-17T01:08:37.350Z,7.70
2022-09-17T01:09:37.338Z,5.10
2022-09-17T01:10:37.336Z,6.50
2022-09-17T01:11:37.403Z,5.60
2022-09-17T01:12:37.347Z,5.70
2022-09-17T01:13:37.312Z,5.30
2022-09-17T01:14:37.309Z,7.50
2022-09-17T01:15:37.299Z,6.70
2022-09-17T01:16:37.961Z,8.80
2022-09-17T01:17:37.302Z,7.40
2022-09-17T01:19:09.840Z,7.30
2022-09-17T01:19:37.267Z,7.20
2022-09-17T01:20:37.265Z,6.50
2022-09-17T01:21:37.247Z,7.60
2022-09-17T01:22:37.270Z,7.70
2022-09-17T01:23:37.232Z,6.50
2022-09-17T01:24:37.231Z,7.30
2022-09-17T01:25:37.218Z,6.00
2022-09-17T01:26:37.237Z,8.10
2022-09-17T01:27:37.309Z,5.40
2022-09-17T01:28:37.197Z,7.90
2022-09-17T01:29:37.194Z,9.80
2022-09-17T01:30:37.184Z,6.00
2022-09-17T01:31:37.256Z,7.90
2022-09-17T01:32:37.195Z,7.50
2022-09-17T01:33:37.163Z,7.20
2022-09-17T01:34:37.151Z,8.40
2022-09-17T01:35:37.146Z,5.60
2022-09-17T01:36:37.144Z,5.30
2022-09-17T01:37:37.160Z,6.00
2022-09-17T01:38:37.127Z,6.30
2022-09-17T01:39:37.118Z,6.60
2022-09-17T01:40:37.132Z,6.10
2022-09-17T01:41:37.098Z,7.50
2022-09-17T01:42:37.094Z,6.10
2022-09-17T01:43:37.190Z,6.20
2022-09-17T01:44:37.081Z,4.60
2022-09-17T01:45:37.072Z,4.50
2022-09-17T01:46:37.105Z,6.80
2022-09-17T01:47:37.054Z,15.40
2022-09-17T01:48:37.074Z,6.90
2022-09-17T01:49:37.046Z,5.90
2022-09-17T01:50:37.034Z,6.60
2022-09-17T01:51:37.023Z,4.90
2022-09-17T01:52:37.044Z,5.60
2022-09-17T01:53:37.008Z,3.10
2022-09-17T01:54:40.426Z,3.50
2022-09-17T01:55:38.997Z,3.00
2022-09-17T01:56:36.984Z,4.30
2022-09-17T01:57:37.005Z,4.90
2022-09-17T01:58:36.969Z,4.20
2022-09-17T01:59:37.041Z,5.70
2022-09-17T02:00:36.989Z,4.60
2022-09-17T02:01:37.027Z,4.40
2022-09-17T02:02:36.964Z,3.50
2022-09-17T02:03:36.937Z,3.60
2022-09-17T02:04:36.925Z,4.50
2022-09-17T02:05:36.917Z,4.00
2022-09-17T02:06:36.906Z,3.30
2022-09-17T02:07:36.933Z,2.60
2022-09-17T02:08:36.888Z,4.20
2022-09-17T02:09:36.886Z,4.40
2022-09-17T02:10:36.880Z,2.80
2022-09-17T02:11:36.870Z,5.10
2022-09-17T02:12:36.895Z,3.50
2022-09-17T02:13:36.852Z,3.40
2022-09-17T02:14:36.848Z,3.90
2022-09-17T02:15:36.910Z,3.80
2022-09-17T02:16:36.875Z,2.60
2022-09-17T02:17:36.819Z,2.00
2022-09-17T02:18:36.836Z,1.60
2022-09-17T02:19:36.803Z,2.60
2022-09-17T02:20:36.801Z,2.80
2022-09-17T02:21:36.792Z,2.60
2022-09-17T02:22:36.784Z,2.60
2022-09-17T02:23:36.798Z,3.30
2022-09-17T02:24:36.758Z,2.40
2022-09-17T02:25:36.754Z,2.80
2022-09-17T02:26:36.747Z,2.30
2022-09-17T02:27:36.736Z,1.40
2022-09-17T02:28:36.760Z,3.60
2022-09-17T02:29:36.722Z,3.20
2022-09-17T02:30:36.713Z,3.20
2022-09-17T02:31:36.822Z,1.40
2022-09-17T02:32:36.700Z,2.00
2022-09-17T02:33:36.713Z,3.90
2022-09-17T02:34:36.683Z,2.80
2022-09-17T02:35:36.680Z,2.90
2022-09-17T02:36:36.670Z,2.20
2022-09-17T02:37:36.664Z,1.50
2022-09-17T02:38:36.679Z,2.60
2022-09-17T02:39:36.646Z,2.30
2022-09-17T02:40:36.694Z,3.70
2022-09-17T02:41:36.631Z,2.50
2022-09-17T02:42:36.627Z,2.40
2022-09-17T02:43:36.645Z,2.70
2022-09-17T02:44:36.612Z,2.90
2022-09-17T02:45:36.605Z,2.40
2022-09-17T02:46:36.604Z,2.20
2022-09-17T02:47:36.670Z,1.70
2022-09-17T02:48:36.608Z,3.90
2022-09-17T02:49:36.572Z,3.10
2022-09-17T02:50:36.562Z,2.90
2022-09-17T02:51:36.558Z,2.10
2022-09-17T02:52:36.547Z,3.70
2022-09-17T02:53:36.573Z,2.40
2022-09-17T02:54:36.531Z,2.60
2022-09-17T02:55:36.529Z,3.70
2022-09-17T02:56:36.521Z,1.70
2022-09-17T02:57:36.547Z,2.50
2022-09-17T02:58:36.517Z,1.80
2022-09-17T02:59:36.499Z,1.60
2022-09-17T03:00:36.549Z,3.40
2022-09-17T03:01:36.517Z,3.70
2022-09-17T03:02:36.516Z,2.20
2022-09-17T03:03:36.555Z,4.30
2022-09-17T03:04:36.468Z,3.40
2022-09-17T03:05:36.462Z,2.90
2022-09-17T03:06:36.458Z,2.10
2022-09-17T03:07:36.451Z,1.60
2022-09-17T03:08:36.469Z,4.70
2022-09-17T03:09:36.427Z,3.70
2022-09-17T03:10:36.422Z,3.50
2022-09-17T03:11:36.414Z,3.20
2022-09-17T03:12:36.409Z,2.70
2022-09-17T03:13:36.421Z,1.70
2022-09-17T03:14:36.393Z,3.20
2022-09-17T03:15:36.381Z,2.70
2022-09-17T03:16:36.440Z,3.80
2022-09-17T03:17:36.359Z,2.10
2022-09-17T03:18:36.394Z,5.40
2022-09-17T03:19:36.430Z,2.90
2022-09-17T03:20:36.343Z,2.50
2022-09-17T03:21:36.336Z,4.50
2022-09-17T03:22:36.336Z,2.90
2022-09-17T03:23:36.593Z,4.30
2022-09-17T03:24:36.311Z,3.50
2022-09-17T03:25:36.303Z,4.00
2022-09-17T03:26:36.299Z,3.80
2022-09-17T03:27:36.291Z,4.10
2022-09-17T03:28:36.311Z,5.00
2022-09-17T03:29:36.288Z,5.60
2022-09-17T03:30:36.277Z,5.40
2022-09-17T03:31:36.327Z,2.60
2022-09-17T03:32:36.257Z,3.90
2022-09-17T03:33:36.267Z,11.10
2022-09-17T03:34:36.241Z,3.70
2022-09-17T03:35:36.300Z,3.30
2022-09-17T03:36:37.220Z,3.70
2022-09-17T03:37:36.213Z,2.70
2022-09-17T03:38:36.235Z,2.50
2022-09-17T03:39:36.199Z,2.40
2022-09-17T03:40:36.262Z,5.50
2022-09-17T03:41:36.184Z,5.40
2022-09-17T03:42:36.181Z,4.10
2022-09-17T03:43:36.195Z,4.00
2022-09-17T03:44:36.163Z,3.50
2022-09-17T03:45:36.154Z,4.20
2022-09-17T03:46:36.271Z,6.50
2022-09-17T03:47:36.145Z,3.70
2022-09-17T03:48:36.161Z,4.10
2022-09-17T03:49:36.136Z,3.10
2022-09-17T03:50:36.124Z,4.20
2022-09-17T03:51:36.198Z,3.30
2022-09-17T03:52:36.108Z,2.20
2022-09-17T03:53:36.125Z,1.90
2022-09-17T03:54:36.093Z,1.70
2022-09-17T03:55:36.079Z,2.70
2022-09-17T03:56:36.074Z,2.00
2022-09-17T03:57:36.068Z,2.70
2022-09-17T03:58:36.085Z,2.50
2022-09-17T03:59:36.054Z,2.20
2022-09-17T04:00:36.046Z,2.10
2022-09-17T04:01:36.128Z,3.80
2022-09-17T04:02:36.177Z,2.60
2022-09-17T04:03:36.047Z,1.60
2022-09-17T04:04:36.013Z,2.30
2022-09-17T04:05:36.017Z,4.50
2022-09-17T04:06:36.001Z,3.30
2022-09-17T04:07:36.071Z,3.80
2022-09-17T04:08:36.013Z,3.60
2022-09-17T04:09:35.976Z,2.40
2022-09-17T04:10:35.971Z,3.30
2022-09-17T04:11:35.959Z,3.20
2022-09-17T04:12:35.952Z,1.50
2022-09-17T04:13:35.975Z,3.90
2022-09-17T04:14:35.936Z,3.80
2022-09-17T04:15:35.928Z,3.10
2022-09-17T04:16:36.011Z,5.20
2022-09-17T04:17:35.908Z,2.30
2022-09-17T04:18:35.929Z,3.00
2022-09-17T04:19:35.897Z,1.70
2022-09-17T04:20:35.885Z,2.30
2022-09-17T04:21:35.884Z,4.00
2022-09-17T04:22:35.876Z,2.60
2022-09-17T04:23:35.968Z,4.40
2022-09-17T04:24:35.857Z,6.10
2022-09-17T04:25:35.853Z,4.10
2022-09-17T04:26:35.843Z,4.70
2022-09-17T04:27:35.831Z,4.50
2022-09-17T04:28:35.851Z,4.00
2022-09-17T04:29:35.826Z,2.50
2022-09-17T04:30:35.807Z,2.70
2022-09-17T04:31:35.857Z,3.20
2022-09-17T04:32:35.800Z,3.50
2022-09-17T04:33:35.817Z,3.40
2022-09-17T04:34:35.782Z,5.10
2022-09-17T04:35:35.779Z,5.70
2022-09-17T04:36:35.765Z,4.80
2022-09-17T04:37:35.763Z,4.80
2022-09-17T04:38:35.776Z,5.00
2022-09-17T04:39:35.824Z,4.10
2022-09-17T04:40:35.822Z,9.00
2022-09-17T04:41:35.732Z,5.10
2022-09-17T04:42:35.721Z,4.60
2022-09-17T04:43:35.738Z,6.30
2022-09-17T04:44:35.710Z,4.50
2022-09-17T04:45:35.693Z,4.20
2022-09-17T04:46:35.750Z,6.50
2022-09-17T04:47:35.681Z,4.90
2022-09-17T04:48:35.700Z,7.20
2022-09-17T04:49:35.668Z,7.90
2022-09-17T04:50:35.657Z,6.90
2022-09-17T04:51:35.652Z,6.00
2022-09-17T04:52:35.643Z,5.80
2022-09-17T04:53:35.667Z,4.80
2022-09-17T04:54:35.630Z,6.10
2022-09-17T04:55:35.701Z,7.60
2022-09-17T04:56:35.611Z,5.30
2022-09-17T04:57:35.608Z,6.00
2022-09-17T04:58:35.621Z,6.00
2022-09-17T04:59:35.587Z,4.70
2022-09-17T05:00:35.712Z,5.70
2022-09-17T05:01:35.580Z,4.00
2022-09-17T05:02:35.564Z,6.00
2022-09-17T05:03:35.589Z,4.10
2022-09-17T05:04:35.551Z,3.30
2022-09-17T05:05:35.545Z,7.40
2022-09-17T05:06:35.541Z,3.90
2022-09-17T05:07:35.538Z,7.70
2022-09-17T05:08:35.553Z,4.00
2022-09-17T05:09:35.515Z,4.60
2022-09-17T05:10:35.506Z,7.70
2022-09-17T05:11:35.583Z,4.20
2022-09-17T05:12:35.499Z,5.40
2022-09-17T05:13:35.512Z,5.60
2022-09-17T05:14:35.476Z,9.50
2022-09-17T05:15:35.469Z,7.70
2022-09-17T05:16:35.489Z,4.90
2022-09-17T05:17:35.456Z,5.90
2022-09-17T05:18:35.465Z,5.40
2022-09-17T05:19:36.438Z,7.10
2022-09-17T05:20:35.431Z,7.80
2022-09-17T05:21:35.421Z,7.80
2022-09-17T05:22:35.424Z,9.20
2022-09-17T05:23:35.432Z,5.70
2022-09-17T05:24:35.393Z,7.30
2022-09-17T05:25:35.395Z,6.50
2022-09-17T05:26:35.380Z,8.00
2022-09-17T05:27:35.452Z,6.30
2022-09-17T05:28:35.402Z,8.40
2022-09-17T05:29:35.364Z,9.50
2022-09-17T05:30:35.356Z,5.60
2022-09-17T05:31:35.433Z,8.20
2022-09-17T05:32:35.340Z,8.80
2022-09-17T05:33:35.358Z,7.90
2022-09-17T05:34:35.332Z,7.50
2022-09-17T05:35:35.322Z,6.80
2022-09-17T05:36:35.307Z,9.00
2022-09-17T05:37:35.303Z,8.70
2022-09-17T05:38:35.321Z,8.20
2022-09-17T05:39:35.288Z,8.80
2022-09-17T05:40:35.377Z,9.30
2022-09-17T05:41:35.271Z,6.60
2022-09-17T05:42:35.267Z,6.50
2022-09-17T05:43:35.360Z,9.90
2022-09-17T05:44:35.236Z,9.90
2022-09-17T05:45:36.238Z,9.80
2022-09-17T05:46:35.318Z,10.40
2022-09-17T05:47:35.230Z,7.40
2022-09-17T05:48:35.258Z,7.90
2022-09-17T05:49:35.216Z,8.20
2022-09-17T05:50:35.214Z,10.10
2022-09-17T05:51:35.200Z,11.40
2022-09-17T05:52:35.187Z,11.70
2022-09-17T05:53:35.187Z,8.70
2022-09-17T05:54:35.211Z,9.40
2022-09-17T05:55:35.167Z,9.60
2022-09-17T05:56:35.155Z,7.50
2022-09-17T05:57:35.147Z,11.80
2022-09-17T05:58:35.168Z,10.00
2022-09-17T05:59:35.214Z,9.40
2022-09-17T06:00:35.129Z,12.30
2022-09-17T06:01:35.147Z,14.50
2022-09-17T06:02:35.169Z,9.20
2022-09-17T06:03:35.125Z,12.50
2022-09-17T06:04:35.306Z,10.90
2022-09-17T06:05:35.086Z,9.70
2022-09-17T06:06:35.086Z,8.90
2022-09-17T06:07:35.067Z,11.20
2022-09-17T06:08:35.091Z,10.40
2022-09-17T06:09:35.058Z,15.40
2022-09-17T06:10:35.045Z,11.60
2022-09-17T06:11:35.039Z,11.20
2022-09-17T06:12:35.036Z,8.40
2022-09-17T06:13:35.054Z,8.50
2022-09-17T06:14:35.012Z,12.80
2022-09-17T06:15:35.083Z,8.90
2022-09-17T06:16:35.064Z,8.30
2022-09-17T06:17:34.998Z,9.00
2022-09-17T06:18:35.010Z,10.50
2022-09-17T06:19:34.973Z,8.90
2022-09-17T06:20:34.974Z,9.30
2022-09-17T06:21:34.962Z,8.20
2022-09-17T06:22:34.954Z,13.60
2022-09-17T06:23:34.967Z,10.50
2022-09-17T06:24:34.933Z,12.50
2022-09-17T06:25:34.928Z,11.30
2022-09-17T06:26:34.923Z,11.80
2022-09-17T06:27:34.912Z,11.30
2022-09-17T06:28:39.165Z,10.30
2022-09-17T06:29:36.902Z,10.20
2022-09-17T06:30:34.894Z,9.00
2022-09-17T06:31:35.035Z,7.40
2022-09-17T06:32:34.874Z,14.00
2022-09-17T06:33:34.893Z,9.20
2022-09-17T06:34:34.859Z,11.80
2022-09-17T06:35:34.847Z,11.60
2022-09-17T06:36:34.839Z,10.20
2022-09-17T06:37:34.835Z,9.60
2022-09-17T06:38:34.852Z,10.90
2022-09-17T06:39:34.815Z,9.10
2022-09-17T06:40:34.862Z,10.10
2022-09-17T06:41:34.806Z,11.00
2022-09-17T06:42:34.792Z,10.70
2022-09-17T06:43:34.814Z,12.10
2022-09-17T06:44:34.783Z,9.30
2022-09-17T06:45:34.772Z,15.50
2022-09-17T06:46:34.857Z,10.00
2022-09-17T06:47:34.838Z,13.70
2022-09-17T06:48:34.774Z,8.30
2022-09-17T06:49:34.756Z,10.10
2022-09-17T06:50:37.273Z,10.50
2022-09-17T06:51:34.729Z,13.20
2022-09-17T06:52:34.722Z,10.20
2022-09-17T06:53:34.741Z,12.50
2022-09-17T06:54:34.705Z,9.10
2022-09-17T06:55:34.695Z,13.30
2022-09-17T06:56:34.688Z,9.60
2022-09-17T06:57:34.678Z,13.30
2022-09-17T06:58:34.701Z,12.70
2022-09-17T06:59:34.675Z,12.80
2022-09-17T07:00:34.748Z,7.70
2022-09-17T07:01:34.727Z,10.80
2022-09-17T07:02:34.642Z,15.10
2022-09-17T07:03:34.741Z,10.20
2022-09-17T07:04:34.620Z,9.50
2022-09-17T07:05:34.625Z,11.70
2022-09-17T07:06:34.619Z,10.70
2022-09-17T07:07:34.621Z,10.80
2022-09-17T07:08:34.655Z,13.90
2022-09-17T07:09:34.608Z,11.70
2022-09-17T07:10:34.572Z,9.40
2022-09-17T07:11:34.574Z,10.40
2022-09-17T07:12:34.567Z,10.20
2022-09-17T07:13:34.557Z,10.90
2022-09-17T07:14:34.573Z,10.50
2022-09-17T07:15:34.536Z,10.70
2022-09-17T07:16:34.543Z,8.70
2022-09-17T07:17:34.522Z,10.40
2022-09-17T07:18:34.515Z,9.80
2022-09-17T07:19:34.611Z,9.30
2022-09-17T07:20:34.501Z,9.40
2022-09-17T07:21:34.490Z,8.50
2022-09-17T07:22:34.488Z,7.10
2022-09-17T07:23:34.483Z,7.50
2022-09-17T07:24:34.494Z,8.70
2022-09-17T07:25:34.473Z,7.80
2022-09-17T07:26:34.460Z,13.40
2022-09-17T07:27:34.459Z,8.30
2022-09-17T07:28:34.445Z,10.50
2022-09-17T07:29:34.457Z,9.10
2022-09-17T07:30:34.427Z,9.00
2022-09-17T07:31:34.508Z,8.60
2022-09-17T07:32:34.410Z,6.90
2022-09-17T07:33:34.409Z,11.70
2022-09-17T07:34:34.416Z,9.80
2022-09-17T07:35:34.461Z,8.50
2022-09-17T07:36:34.382Z,9.00
2022-09-17T07:37:34.380Z,11.20
2022-09-17T07:38:34.360Z,8.10
2022-09-17T07:39:34.382Z,11.40
2022-09-17T07:40:34.465Z,7.70
2022-09-17T07:41:34.343Z,8.10
2022-09-17T07:42:34.338Z,10.00
2022-09-17T07:43:34.328Z,10.40
2022-09-17T07:44:34.349Z,14.60
2022-09-17T07:45:34.314Z,9.80
2022-09-17T07:46:34.343Z,9.00
2022-09-17T07:47:34.304Z,9.50
2022-09-17T07:48:34.289Z,10.70
2022-09-17T07:49:34.314Z,9.60
2022-09-17T07:50:34.278Z,10.50
2022-09-17T07:51:34.347Z,8.00
2022-09-17T07:52:34.264Z,9.70
2022-09-17T07:53:34.256Z,8.40
2022-09-17T07:54:34.268Z,13.40
2022-09-17T07:55:34.241Z,8.90
2022-09-17T07:56:34.228Z,11.00
2022-09-17T07:57:34.227Z,8.50
2022-09-17T07:58:34.216Z,9.00
2022-09-17T07:59:34.236Z,11.10
2022-09-17T08:00:34.201Z,12.50
2022-09-17T08:01:34.244Z,9.90
2022-09-17T08:02:34.267Z,10.50
2022-09-17T08:03:34.176Z,11.00
2022-09-17T08:04:34.196Z,12.30
2022-09-17T08:05:34.169Z,14.10
2022-09-17T08:06:34.160Z,8.50
2022-09-17T08:07:34.223Z,11.40
2022-09-17T08:08:34.147Z,11.20
2022-09-17T08:09:34.152Z,12.90
2022-09-17T08:10:34.124Z,10.70
2022-09-17T08:12:36.113Z,11.60
2022-09-17T08:13:34.103Z,12.60
2022-09-17T08:14:34.125Z,12.50
2022-09-17T08:15:34.092Z,9.30
2022-09-17T08:16:34.169Z,8.50
2022-09-17T08:17:34.078Z,9.70
2022-09-17T08:18:34.065Z,15.60
2022-09-17T08:19:34.078Z,13.60
2022-09-17T08:20:34.054Z,8.80
2022-09-17T08:21:34.047Z,13.20
2022-09-17T08:22:34.032Z,8.30
2022-09-17T08:23:34.106Z,10.70
2022-09-17T08:24:34.051Z,12.70
2022-09-17T08:25:34.010Z,15.00
2022-09-17T08:26:34.010Z,13.70
2022-09-17T08:27:34.003Z,11.20
2022-09-17T08:28:33.992Z,11.40
2022-09-17T08:29:35.378Z,11.50
2022-09-17T08:30:34.977Z,14.50
2022-09-17T08:31:34.010Z,10.00
2022-09-17T08:32:33.956Z,8.30
2022-09-17T08:33:33.973Z,9.40
2022-09-17T08:34:33.944Z,10.10
2022-09-17T08:35:33.956Z,8.20
2022-09-17T08:36:33.927Z,9.80
2022-09-17T08:37:33.919Z,10.90
2022-09-17T08:38:37.920Z,11.60
2022-09-17T08:39:34.984Z,13.20
2022-09-17T08:40:33.971Z,10.60
2022-09-17T08:41:33.893Z,6.80
2022-09-17T08:42:33.882Z,11.00
2022-09-17T08:43:33.871Z,9.10
2022-09-17T08:44:33.869Z,10.60
2022-09-17T08:45:33.883Z,11.10
2022-09-17T08:46:33.908Z,8.80
2022-09-17T08:47:33.840Z,13.90
2022-09-17T08:48:33.830Z,11.30
2022-09-17T08:49:33.827Z,8.10
2022-09-17T08:50:33.848Z,11.10
2022-09-17T08:51:33.821Z,8.40
2022-09-17T08:52:33.810Z,9.40
2022-09-17T08:53:33.797Z,13.00
2022-09-17T08:54:34.411Z,11.20
2022-09-17T08:55:33.881Z,11.20
2022-09-17T08:56:33.775Z,9.30
2022-09-17T08:57:33.765Z,14.40
2022-09-17T08:58:33.769Z,8.90
2022-09-17T08:59:33.753Z,10.00
2022-09-17T09:00:33.774Z,12.40
2022-09-17T09:01:33.775Z,8.40
2022-09-17T09:02:33.855Z,9.00
2022-09-17T09:03:33.726Z,10.20
2022-09-17T09:04:33.723Z,12.50
2022-09-17T09:05:33.737Z,12.30
2022-09-17T09:06:33.706Z,9.70
2022-09-17T09:07:33.697Z,10.70
2022-09-17T09:08:33.686Z,17.20
2022-09-17T09:09:33.684Z,10.50
2022-09-17T09:10:33.698Z,10.80
2022-09-17T09:11:33.748Z,10.10
2022-09-17T09:12:33.656Z,13.50
2022-09-17T09:13:33.650Z,8.60
2022-09-17T09:14:33.645Z,9.60
2022-09-17T09:15:33.667Z,12.80
2022-09-17T09:16:33.688Z,12.60
2022-09-17T09:17:33.627Z,11.20
2022-09-17T09:18:33.617Z,7.50
2022-09-17T09:19:33.610Z,13.40
2022-09-17T09:20:33.624Z,10.40
2022-09-17T09:21:33.590Z,12.50
2022-09-17T09:22:33.586Z,12.90
2022-09-17T09:23:33.581Z,9.50
2022-09-17T09:24:33.570Z,9.70
2022-09-17T09:25:33.588Z,12.60
2022-09-17T09:26:33.560Z,10.00
2022-09-17T09:27:33.624Z,7.50
2022-09-17T09:28:33.539Z,12.10
2022-09-17T09:29:33.533Z,9.40
2022-09-17T09:30:33.556Z,8.80
2022-09-17T09:31:33.573Z,10.00
2022-09-17T09:32:33.508Z,11.20
2022-09-17T09:33:33.498Z,8.90
2022-09-17T09:34:33.488Z,7.40
2022-09-17T09:35:33.509Z,10.70
2022-09-17T09:36:33.478Z,7.70
2022-09-17T09:37:33.467Z,7.70
2022-09-17T09:38:33.462Z,8.30
2022-09-17T09:39:40.198Z,9.60
2022-09-17T09:40:35.554Z,6.60
2022-09-17T09:41:33.437Z,10.40
2022-09-17T09:42:33.436Z,6.80
2022-09-17T09:43:59.620Z,7.60
2022-09-17T09:44:35.417Z,6.70
2022-09-17T09:45:33.445Z,6.80
2022-09-17T09:46:33.433Z,13.50
2022-09-17T09:47:33.398Z,7.20
2022-09-17T09:48:33.390Z,6.90
2022-09-17T09:49:33.385Z,6.60
2022-09-17T09:50:54.684Z,10.30
2022-09-17T09:51:35.391Z,7.00
2022-09-17T09:52:33.360Z,7.30
2022-09-17T09:53:33.349Z,7.50
2022-09-17T09:54:34.043Z,8.30
2022-09-17T09:55:33.335Z,9.20
2022-09-17T09:56:33.358Z,10.40
2022-09-17T09:57:33.321Z,9.70
2022-09-17T09:58:33.317Z,5.90
2022-09-17T09:59:33.475Z,8.40
2022-09-17T10:00:33.303Z,9.80
2022-09-17T10:01:33.353Z,11.80
2022-09-17T10:02:33.390Z,7.30
2022-09-17T10:03:33.287Z,6.20
2022-09-17T10:04:33.273Z,6.50
2022-09-17T10:05:33.266Z,7.50
2022-09-17T10:06:33.278Z,8.20
2022-09-17T10:07:33.252Z,7.30
2022-09-17T10:08:33.247Z,8.30
2022-09-17T10:09:33.238Z,5.70
2022-09-17T10:10:33.228Z,8.50
2022-09-17T10:11:33.247Z,9.00
2022-09-17T10:12:33.215Z,6.80
2022-09-17T10:13:33.201Z,7.20
2022-09-17T10:14:33.195Z,6.70
2022-09-17T10:15:33.269Z,5.20
2022-09-17T10:16:33.291Z,7.40
2022-09-17T10:17:33.178Z,11.70
2022-09-17T10:18:33.166Z,9.90
2022-09-17T10:19:33.156Z,8.60
2022-09-17T10:20:33.149Z,7.90
2022-09-17T10:21:33.169Z,6.10
2022-09-17T10:22:33.132Z,5.80
2022-09-17T10:23:33.126Z,8.90
2022-09-17T10:24:33.117Z,13.40
2022-09-17T10:25:33.108Z,8.90
2022-09-17T10:26:33.127Z,8.20
2022-09-17T10:27:33.095Z,9.90
2022-09-17T10:28:33.088Z,9.90
2022-09-17T10:29:33.080Z,7.20
2022-09-17T10:30:33.075Z,8.10
2022-09-17T10:31:33.206Z,8.80
2022-09-17T10:32:33.059Z,8.00
2022-09-17T10:33:33.051Z,9.50
2022-09-17T10:34:33.042Z,9.10
2022-09-17T10:35:33.038Z,9.10
2022-09-17T10:36:37.282Z,6.60
2022-09-17T10:37:34.020Z,8.90
2022-09-17T10:38:33.014Z,10.90
2022-09-17T10:39:33.007Z,8.50
2022-09-17T10:40:33.055Z,6.40
2022-09-17T10:41:32.992Z,7.20
2022-09-17T10:42:33.020Z,5.60
2022-09-17T10:43:32.979Z,7.10
2022-09-17T10:44:32.967Z,12.10
2022-09-17T10:45:32.956Z,6.10
2022-09-17T10:46:32.982Z,7.10
2022-09-17T10:47:33.047Z,6.60
2022-09-17T10:48:32.936Z,8.40
2022-09-17T10:49:32.932Z,5.80
2022-09-17T10:50:32.924Z,6.50
2022-09-17T10:51:32.916Z,4.90
2022-09-17T10:52:32.928Z,5.80
2022-09-17T10:53:32.893Z,6.70
2022-09-17T10:54:32.885Z,9.00
2022-09-17T10:55:32.883Z,5.70
2022-09-17T10:56:32.874Z,5.40
2022-09-17T10:57:32.889Z,6.70
2022-09-17T10:58:32.855Z,8.30
2022-09-17T10:59:32.850Z,10.00
2022-09-17T11:00:32.838Z,7.60
2022-09-17T11:01:32.905Z,4.00
2022-09-17T11:02:33.010Z,5.90
2022-09-17T11:03:32.895Z,7.70
2022-09-17T11:04:32.807Z,5.70
2022-09-17T11:05:32.799Z,9.50
2022-09-17T11:06:32.794Z,5.80
2022-09-17T11:07:32.818Z,6.50
2022-09-17T11:08:32.884Z,6.90
2022-09-17T11:09:32.768Z,7.50
2022-09-17T11:10:32.761Z,7.50
2022-09-17T11:11:32.756Z,6.50
2022-09-17T11:12:32.774Z,5.80
2022-09-17T11:13:32.741Z,5.60
2022-09-17T11:14:32.732Z,5.00
2022-09-17T11:15:32.728Z,6.10
2022-09-17T11:16:32.786Z,4.30
2022-09-17T11:17:32.703Z,4.70
2022-09-17T11:18:32.721Z,4.90
2022-09-17T11:19:32.769Z,6.90
2022-09-17T11:20:32.684Z,6.10
2022-09-17T11:21:32.872Z,6.70
2022-09-17T11:22:32.671Z,6.70
2022-09-17T11:23:32.684Z,8.80
2022-09-17T11:24:32.647Z,7.40
2022-09-17T11:25:32.642Z,6.10
2022-09-17T11:26:32.634Z,6.30
2022-09-17T11:27:32.630Z,4.50
2022-09-17T11:28:33.104Z,7.20
2022-09-17T11:29:32.610Z,10.60
2022-09-17T11:30:32.603Z,6.30
2022-09-17T11:31:32.632Z,7.60
2022-09-17T11:32:32.587Z,8.40
2022-09-17T11:33:32.608Z,8.40
2022-09-17T11:34:32.576Z,3.90
2022-09-17T11:35:32.638Z,5.90
2022-09-17T11:36:32.557Z,7.10
2022-09-17T11:37:32.558Z,4.80
2022-09-17T11:38:32.568Z,6.10
2022-09-17T11:39:32.535Z,5.70
2022-09-17T11:40:32.579Z,6.70
2022-09-17T11:41:32.516Z,5.30
2022-09-17T11:42:32.506Z,5.00
2022-09-17T11:43:32.526Z,7.60
2022-09-17T11:44:32.497Z,5.20
2022-09-17T11:45:32.487Z,11.40
2022-09-17T11:46:32.517Z,6.50
2022-09-17T11:47:32.473Z,7.70
2022-09-17T11:48:32.491Z,5.30
2022-09-17T11:49:32.455Z,6.50
2022-09-17T11:50:32.447Z,6.20
2022-09-17T11:51:32.519Z,6.50
2022-09-17T11:52:32.431Z,7.60
2022-09-17T11:53:32.452Z,9.20
2022-09-17T11:54:32.417Z,7.10
2022-09-17T11:55:32.411Z,8.00
2022-09-17T11:56:32.404Z,6.00
2022-09-17T11:57:32.395Z,4.40
2022-09-17T11:58:32.414Z,6.80
2022-09-17T11:59:32.381Z,5.70
2022-09-17T12:00:32.375Z,5.70
2022-09-17T12:01:32.426Z,5.10
2022-09-17T12:02:32.406Z,5.50
2022-09-17T12:03:32.378Z,5.40
2022-09-17T12:04:32.326Z,4.60
2022-09-17T12:05:33.334Z,4.60
2022-09-17T12:06:32.326Z,5.20
2022-09-17T12:07:32.394Z,3.90
2022-09-17T12:08:32.334Z,7.50
2022-09-17T12:09:32.308Z,6.80
2022-09-17T12:10:32.299Z,7.00
2022-09-17T12:11:32.295Z,4.10
2022-09-17T12:12:48.866Z,8.90
2022-09-17T12:13:34.297Z,6.60
2022-09-17T12:14:32.266Z,8.40
2022-09-17T12:15:32.256Z,7.70
2022-09-17T12:16:32.359Z,3.70
2022-09-17T12:17:32.239Z,6.10
2022-09-17T12:18:33.500Z,8.00
2022-09-17T12:19:33.224Z,6.90
2022-09-17T12:20:32.220Z,6.70
2022-09-17T12:21:32.210Z,3.40
2022-09-17T12:22:32.204Z,6.30
2022-09-17T12:23:32.294Z,7.40
2022-09-17T12:24:32.190Z,4.20
2022-09-17T12:25:32.181Z,6.20
2022-09-17T12:26:32.170Z,4.20
2022-09-17T12:27:32.168Z,5.30
2022-09-17T12:28:32.188Z,6.00
2022-09-17T12:29:32.154Z,5.80
2022-09-17T12:30:32.137Z,5.00
2022-09-17T12:31:32.221Z,4.60
2022-09-17T12:32:32.124Z,3.00
2022-09-17T12:33:32.141Z,4.80
2022-09-17T12:34:32.110Z,6.00
2022-09-17T12:35:59.805Z,5.40
2022-09-17T12:36:34.101Z,4.10
2022-09-17T12:37:32.087Z,5.40
2022-09-17T12:38:32.106Z,4.20
2022-09-17T12:39:32.153Z,4.70
2022-09-17T12:40:32.116Z,4.20
2022-09-17T12:41:32.056Z,6.10
2022-09-17T12:42:32.050Z,5.30
2022-09-17T12:43:32.068Z,5.00
2022-09-17T12:44:32.034Z,5.50
2022-09-17T12:45:32.029Z,5.30
2022-09-17T12:46:32.045Z,4.90
2022-09-17T12:47:32.013Z,4.90
2022-09-17T12:48:32.033Z,4.80
2022-09-17T12:49:31.999Z,3.50
2022-09-17T12:50:31.990Z,6.40
2022-09-17T12:51:31.988Z,3.40
2022-09-17T12:52:31.975Z,4.00
2022-09-17T12:53:31.993Z,3.90
2022-09-17T12:54:31.962Z,4.50
2022-09-17T12:55:32.030Z,4.30
2022-09-17T12:56:31.942Z,2.40
2022-09-17T12:57:31.938Z,5.20
2022-09-17T12:58:31.951Z,4.60
2022-09-17T12:59:31.920Z,3.10
2022-09-17T13:00:31.923Z,5.50
2022-09-17T13:01:31.905Z,4.10
2022-09-17T13:02:31.897Z,3.40
2022-09-17T13:03:31.920Z,2.90
2022-09-17T13:04:56.903Z,3.20
2022-09-17T13:05:35.975Z,2.50
2022-09-17T13:06:32.860Z,3.40
2022-09-17T13:07:31.857Z,3.10
2022-09-17T13:08:31.869Z,3.10
2022-09-17T13:09:31.842Z,3.90
2022-09-17T13:10:31.838Z,3.80
2022-09-17T13:11:31.899Z,4.20
2022-09-17T13:12:31.819Z,3.30
2022-09-17T13:13:31.800Z,2.80